Flight Track Log - Related Links

Times and Time Zones

All times are in EDT time to prevent confusion due to time zone crossing. See the ASQ520B flight status page for this flight to view local times or setup timezone preferences in your user account.

Time Position Orientation Groundspeed Altitude Reporting Facility
EDT Latitude Longitude Course Direction KTS MPH feet Rate Location/Type
Sat 07:33:49 PM 38.9667 -77.4333 349° North 178 205 1,500  Level Potomac TRACON
Sat 07:34:49 PM 39.0333 -77.4500 345° North 221 254 4,600 3,025 Climbing Potomac TRACON
Sat 07:35:50 PM 39.0833 -77.4667 38° Northeast 219 252 7,600 2,529 Climbing Potomac TRACON
Sat 07:36:50 PM 39.1333 -77.4167 90° East 275 316 9,700 1,600 Climbing Potomac TRACON
Sat 07:37:50 PM 39.1333 -77.3000 110° East 338 389 10,800 1,636 Climbing Potomac TRACON
Sat 07:38:51 PM 39.1000 -77.1833 115° Southeast 357 411 13,000 2,000 Climbing Potomac TRACON
Sat 07:39:26 PM 39.0786 -77.1236 88° East 364 419 14,000 1,688 Climbing Washington Center
Sat 07:40:27 PM 39.0825 -76.9928 84° East 364 419 15,700 1,350 Climbing Washington Center
Sat 07:41:26 PM 39.0944 -76.8539 83° East 369 425 16,700 650 Climbing Washington Center
Sat 07:42:27 PM 39.1083 -76.7069 82° East 390 449 17,000 150 Climbing Washington Center
Sat 07:43:26 PM 39.1242 -76.5603 67° East 410 472 17,000  Level Washington Center
Sat 07:44:26 PM 39.1689 -76.4214 64° Northeast 410 472 17,000  Level Washington Center
Sat 07:45:26 PM 39.2197 -76.2856 60° Northeast 410 472 17,000 -50 Level Washington Center
Sat 07:46:27 PM 39.2831 -76.1414 47° Northeast 418 481 16,900 -50 Descending Washington Center
Sat 07:47:27 PM 39.3606 -76.0344 45° Northeast 407 468 16,900  Level Washington Center
Sat 07:48:28 PM 39.4422 -75.9300 44° Northeast 407 468 16,900  Level Washington Center
Sat 07:49:26 PM 39.5236 -75.8283 44° Northeast 407 468 16,900  Level Washington Center
Sat 07:50:26 PM 39.6053 -75.7261 45° Northeast 402 463 16,900  Level Washington Center
Sat 07:51:26 PM 39.6886 -75.6186 45° Northeast 407 468 16,900  Level Washington Center
Sat 07:52:28 PM 39.7719 -75.5106 44° Northeast 407 468 16,900  Level Washington Center
Sat 07:53:28 PM 39.8364 -75.4294 45° Northeast 407 468 16,900 -706 Level Washington Center
Sat 07:54:27 PM 39.9236 -75.3156 44° Northeast 407 468 15,500 -1,795 Descending Washington Center
Sat 07:55:25 PM 40.0006 -75.2178 43° Northeast 401 461 13,400 -1,488 Descending Washington Center
Sat 07:58:29 PM 40.2167 -74.9500 44° Northeast 293 337 9,500 -1,303 Descending New York TRACON
Sat 07:59:29 PM 40.2833 -74.8667 45° Northeast 280 322 8,100 -789 Descending New York TRACON
Sat 08:00:23 PM 40.3333 -74.8000 57° Northeast 271 312 8,000 -500 Descending New York TRACON
Sat 08:01:29 PM 40.3667 -74.7333 37° Northeast 228 262 7,100 -905 Descending New York TRACON
Sat 08:02:29 PM 40.4167 -74.6833 21° North 234 269 6,100 -650 Descending New York TRACON
Sat 08:03:29 PM 40.4833 -74.6500 114° Southeast 201 231 5,800 -632 Descending New York TRACON
Sat 08:04:23 PM 40.4667 -74.6000 153° Southeast 220 253 4,900 -950 Descending New York TRACON
Sat 08:05:29 PM 40.4167 -74.5667 131° Southeast 194 223 3,900 -810 Descending New York TRACON
Sat 08:06:29 PM 40.3833 -74.5167 143° Southeast 185 213 3,200 -450 Descending New York TRACON
Sat 08:07:29 PM 40.3500 -74.4833 72° East 183 211 3,000 -105 Descending New York TRACON
Sat 08:08:23 PM 40.3667 -74.4167 66° East 184 212 3,000  Level New York TRACON
Sat 08:09:29 PM 40.3833 -74.3667 27° Northeast 184 212 3,000 48 Level New York TRACON
Sat 08:10:29 PM 40.4333 -74.3333 27° Northeast 186 214 3,100  Climbing New York TRACON
Sat 08:11:29 PM 40.4833 -74.3000 27° Northeast 184 212 3,000 -100 Descending New York TRACON

Login

Don't have an account? Register now (free) for customized features, flight alerts, and more!